x

Monterey - 27nm Wnw Of Monterey, Ca (46042) Wave Buoy

2:50pm - Wed 26th Nov 2014 All times are PST. -8 hours from GMT.

  • Sig Wave height 4.9ft
  • Swell Direction
  • Peak Period 12s
  • Average Period 9s
  • Wind
    2mph
  • Sea Temp 62°f
  • Air Temp 62°f
  • Sea Pressure 1022.7mb
  • Monterey - 27nm Wnw Of Monterey, Ca
  • Monterey - 27nm Wnw Of Monterey, Ca

More Historic Weather Station data

Upgrade to MSW Pro to gain access to the past 30 days of data for over 8000 Wavebouys and Weather Stations around the globe.

Join Pro

Comparision Forecast

View Surf forecast
   
Wed 11/26 2:50pm 5ft 12s 9s 2
mph
1022.7mb 62f 62f
1:50pm 4.5ft 11s 8s 7 9 mph 1022.5mb 62f 62f
12:50pm 5ft 12s 8s 9 11 mph 1023mb 61f 62f
11:50am 5ft 13s 8s 9 11 mph 1023.8mb 61f 62f
10:50am 5ft 13s 7s 11 13 mph 1024.8mb 61f 61f
9:50am 5ft 13s 7s 13 18 mph 1025.3mb 61f 60f
8:50am 5.5ft 13s 8s 16 18 mph 1025.1mb 61f 60f
7:50am 6ft 12s 8s 11 13 mph 1025.2mb 61f 60f
6:50am 6ft 12s 8s 13 16 mph 1024.7mb 61f 61f
5:50am 6ft 13s 9s 13 16 mph 1024.7mb 61f 61f
4:50am 6.5ft 13s 9s 13 18 mph 1024.9mb 61f 61f
3:50am 6.5ft 13s 9s 13 16 mph 1025mb 61f 60f
2:50am 7ft 14s 10s 11 13 mph 1025mb 61f 61f
1:50am 6.5ft 13s 10s 11 16 mph 1025mb 61f 61f
12:50am 6ft 14s 10s 11 16 mph 1025.5mb 61f 61f
Tue 11/25 11:50pm 7ft 13s 11s 7 9 mph 1026.4mb 62f 61f
10:50pm 8ft 13s 11s 7 9 mph 1026.7mb 62f 61f
9:50pm 6.5ft 13s 10s 7
mph
1027.1mb 62f 61f
8:50pm 6.5ft 13s 10s 4 7 mph 1027mb 62f 61f
7:50pm 6ft 14s 10s 7
mph
1027.1mb 62f 61f
6:50pm 7ft 13s 10s 7
mph
1027.2mb 62f 60f
5:50pm 7.5ft 13s 10s 7 9 mph 1027.3mb 62f 60f
4:50pm 7ft 13s 10s 9 11 mph 1027.4mb 62f 60f
3:50pm 7ft 14s 10s 7 9 mph 1027.5mb 62f 61f
2:50pm 7.5ft 12s 9s 7 9 mph 1027.5mb 61f 61f
1:50pm 7.5ft 13s 9s 7 9 mph 1027.8mb 61f 61f
12:50pm 7ft 13s 8s 7 9 mph 1028.5mb 60f 61f
11:50am 7.5ft 13s 9s 9 11 mph 1029.1mb 60f 60f
10:50am 7ft 13s 8s 13 16 mph 1029.7mb 60f 60f
9:50am 8ft 14s 9s 13 16 mph 1029.8mb 60f 58f
8:50am 9ft 13s 9s 16 18 mph 1029.8mb 60f 57f
7:50am 8ft 14s 9s 13 16 mph 1029.8mb 60f 58f
6:50am 8ft 14s 10s 9 11 mph 1029.9mb 60f 58f
5:50am 8ft 14s 10s 9 13 mph 1029.6mb 60f 59f
4:50am 9ft 14s 11s 4 7 mph 1029.2mb 60f 59f
3:50am 8ft 13s 10s 7
mph
1028.9mb 60f 59f
2:50am 8ft 13s 10s 4 7 mph 1029.2mb 60f 59f
1:50am 8ft 14s 10s 7 11 mph 1029.6mb 60f 59f
12:50am 8ft 14s 10s 9 11 mph 1029.7mb 60f 59f
Mon 11/24 11:50pm 8ft 14s 10s 9 11 mph 1029.8mb 60f 59f
10:50pm 7.5ft 14s 9s 9 11 mph 1029.8mb 60f 59f
9:50pm 8ft 13s 9s 11 13 mph 1029.4mb 60f 59f
8:50pm 8ft 14s 9s 13 16 mph 1028.8mb 60f 60f
7:50pm 9ft 14s 9s 16 20 mph 1028.2mb 61f 60f
6:50pm 8ft 14s 8s 18 20 mph 1027.9mb 61f 60f
5:50pm 9ft 13s 9s 18 20 mph 1027.5mb 61f 60f
4:50pm 9ft 13s 9s 16 20 mph 1027.1mb 61f 60f
3:50pm 11ft 14s 9s 18 22 mph 1026.9mb 61f 60f
2:50pm 10ft 14s 9s 18 22 mph 1027mb 61f 60f
1:50pm 9ft 14s 9s 18 20 mph 1027.2mb 61f 60f
12:50pm 9ft 14s 9s 16 20 mph 1027.5mb 61f 60f
11:50am 8ft 13s 8s 11 16 mph 1028.1mb 61f 59f
10:50am 9ft 12s 9s 4 9 mph 1029mb 60f 59f
9:50am 9ft 13s 9s 4 7 mph 1028.8mb 60f 58f
8:50am 9ft 12s 8s 4 7 mph 1028.5mb 60f 57f
7:50am 8ft 13s 8s 9 11 mph 1027.8mb 60f 58f
6:50am 8ft 14s 8s 9 11 mph 1027.2mb 60f 58f
5:50am 9ft 13s 8s 13 16 mph 1026.5mb 60f 59f
4:50am 9ft 14s 8s 11 13 mph 1026.4mb 60f 58f
3:50am 9ft 13s 9s 11 13 mph 1025.9mb 60f 58f
2:50am 9ft 14s 9s 11 16 mph 1026.1mb 60f 58f
1:50am 9.5ft 14s 9s 13 16 mph 1026.1mb 60f 58f
12:50am 10ft 14s 9s 18 20 mph 1026.2mb 60f 58f
Sun 11/23 11:50pm 10ft 14s 9s 16 20 mph 1026.6mb 60f 59f
10:50pm 9.5ft 13s 8s 20 25 mph 1026.3mb 60f 59f
9:50pm 10ft 13s 9s 20 25 mph 1026.3mb 60f 59f
8:50pm 8ft 11s 8s 20 25 mph 1025.9mb 61f 59f
7:50pm 9ft 14s 8s 20 25 mph 1025.7mb 61f 59f
6:50pm 9ft 13s 8s 22 25 mph 1025.6mb 61f 59f
5:50pm 9ft 13s 8s 18 22 mph 1025.1mb 61f 59f
4:50pm 10ft 13s 9s 18 22 mph 1025.2mb 61f 59f
3:50pm 10ft 14s 9s 11 16 mph 1025mb 61f 60f
2:50pm 9ft 13s 8s 13 16 mph 1025.2mb 61f 60f
1:50pm 9.5ft 15s 8s 13 16 mph 1025.2mb 61f 60f
12:50pm 8.5ft 12s 8s 16 18 mph 1025.3mb 61f 60f
11:50am 9ft 14s 8s 18 20 mph 1025.7mb 60f 60f
10:50am 9.5ft 14s 8s 20 25 mph 1026.6mb 60f 59f
9:50am 9ft 15s 8s 18 22 mph 1026.3mb 60f 59f
8:50am 10ft 14s 8s 13 18 mph 1025.7mb 60f 59f
7:50am 10ft 15s  -  16 20 mph 1025.6mb 60f 59f
6:50am 9ft 15s 8s 18 20 mph 1024.4mb 60f 58f
5:50am 11ft 15s 9s 18 22 mph 1024.8mb 60f 59f
4:50am 11ft 13s 9s 16 20 mph 1024.4mb 60f 59f
3:50am 11ft 15s 9s 18 20 mph 1024.4mb 60f 59f
2:50am 11ft 15s 9s 16 20 mph 1023.8mb 60f 59f
1:50am 10.5ft 15s 9s 16 20 mph 1023.6mb 60f 59f
12:50am 10ft 15s 8s 20 27 mph 1023.4mb 60f 59f